sensor_id;sensor_type;location;lat;lon;timestamp;pressure;altitude;pressure_sealevel;temperature;humidity
14343;BME280;7255;53.596;9.960;2023-01-10T00:00:19;100397.94;;;6.52;nan
14343;BME280;7255;53.596;9.960;2023-01-10T00:02:46;100402.44;;;6.59;nan
14343;BME280;7255;53.596;9.960;2023-01-10T00:05:13;100423.00;;;6.58;nan
14343;BME280;7255;53.596;9.960;2023-01-10T00:07:40;100422.16;;;6.71;nan
14343;BME280;7255;53.596;9.960;2023-01-10T00:10:07;100431.62;;;6.67;nan
14343;BME280;7255;53.596;9.960;2023-01-10T00:12:33;100437.78;;;6.67;nan
14343;BME280;7255;53.596;9.960;2023-01-10T00:15:17;100439.00;;;6.65;nan
14343;BME280;7255;53.596;9.960;2023-01-10T00:17:44;100436.97;;;6.67;nan
14343;BME280;7255;53.596;9.960;2023-01-10T00:20:12;100434.06;;;6.75;nan
14343;BME280;7255;53.596;9.960;2023-01-10T00:22:38;100443.94;;;6.68;nan
14343;BME280;7255;53.596;9.960;2023-01-10T00:25:05;100452.97;;;6.67;nan
14343;BME280;7255;53.596;9.960;2023-01-10T00:27:31;100450.09;;;6.62;nan
14343;BME280;7255;53.596;9.960;2023-01-10T00:29:58;100438.19;;;6.58;nan
14343;BME280;7255;53.596;9.960;2023-01-10T00:32:25;100442.72;;;6.50;nan
14343;BME280;7255;53.596;9.960;2023-01-10T00:34:52;100450.06;;;6.48;nan
14343;BME280;7255;53.596;9.960;2023-01-10T00:37:21;100460.37;;;6.58;nan
14343;BME280;7255;53.596;9.960;2023-01-10T00:39:47;100451.72;;;6.63;nan
14343;BME280;7255;53.596;9.960;2023-01-10T00:42:13;100457.09;;;6.56;nan
14343;BME280;7255;53.596;9.960;2023-01-10T00:44:57;100461.41;;;6.50;nan
14343;BME280;7255;53.596;9.960;2023-01-10T00:47:24;100467.34;;;6.52;nan
14343;BME280;7255;53.596;9.960;2023-01-10T00:49:50;100471.44;;;6.55;nan
14343;BME280;7255;53.596;9.960;2023-01-10T00:52:16;100474.75;;;6.50;nan
14343;BME280;7255;53.596;9.960;2023-01-10T00:54:44;100477.19;;;6.59;nan
14343;BME280;7255;53.596;9.960;2023-01-10T00:57:10;100487.47;;;6.55;nan
14343;BME280;7255;53.596;9.960;2023-01-10T00:59:36;100487.84;;;6.52;nan
14343;BME280;7255;53.596;9.960;2023-01-10T01:02:03;100492.78;;;6.48;nan
14343;BME280;7255;53.596;9.960;2023-01-10T01:04:29;100479.25;;;6.43;nan
14343;BME280;7255;53.596;9.960;2023-01-10T01:06:59;100484.16;;;6.33;nan
14343;BME280;7255;53.596;9.960;2023-01-10T01:09:25;100502.22;;;6.31;nan
14343;BME280;7255;53.596;9.960;2023-01-10T01:11:53;100504.25;;;6.29;nan
14343;BME280;7255;53.596;9.960;2023-01-10T01:14:20;100524.78;;;6.28;nan
14343;BME280;7255;53.596;9.960;2023-01-10T01:16:46;100526.38;;;6.16;nan
14343;BME280;7255;53.596;9.960;2023-01-10T01:19:13;100534.19;;;6.18;nan
14343;BME280;7255;53.596;9.960;2023-01-10T01:21:39;100523.91;;;6.14;nan
14343;BME280;7255;53.596;9.960;2023-01-10T01:24:06;100535.78;;;6.05;nan
14343;BME280;7255;53.596;9.960;2023-01-10T01:26:33;100550.94;;;5.98;nan
14343;BME280;7255;53.596;9.960;2023-01-10T01:29:01;100557.03;;;5.92;nan
14343;BME280;7255;53.596;9.960;2023-01-10T01:31:27;100555.37;;;5.91;nan
14343;BME280;7255;53.596;9.960;2023-01-10T01:33:54;100561.09;;;5.88;nan
14343;BME280;7255;53.596;9.960;2023-01-10T01:36:20;100567.22;;;5.82;nan
14343;BME280;7255;53.596;9.960;2023-01-10T01:38:46;100571.31;;;5.77;nan
14343;BME280;7255;53.596;9.960;2023-01-10T01:41:12;100577.84;;;5.75;nan
14343;BME280;7255;53.596;9.960;2023-01-10T01:44:00;100586.94;;;5.87;nan
14343;BME280;7255;53.596;9.960;2023-01-10T01:46:28;100590.59;;;5.79;nan
14343;BME280;7255;53.596;9.960;2023-01-10T01:48:55;100596.00;;;5.93;nan
14343;BME280;7255;53.596;9.960;2023-01-10T01:51:24;100597.22;;;5.90;nan
14343;BME280;7255;53.596;9.960;2023-01-10T01:53:56;100608.34;;;5.94;nan
14343;BME280;7255;53.596;9.960;2023-01-10T01:56:27;100617.41;;;6.00;nan
14343;BME280;7255;53.596;9.960;2023-01-10T01:58:57;100621.53;;;6.02;nan
14343;BME280;7255;53.596;9.960;2023-01-10T02:01:25;100616.97;;;5.96;nan
14343;BME280;7255;53.596;9.960;2023-01-10T02:03:57;100628.53;;;6.10;nan
14343;BME280;7255;53.596;9.960;2023-01-10T02:06:26;100631.72;;;5.92;nan
14343;BME280;7255;53.596;9.960;2023-01-10T02:08:57;100638.31;;;5.96;nan
14343;BME280;7255;53.596;9.960;2023-01-10T02:11:28;100638.38;;;6.03;nan
14343;BME280;7255;53.596;9.960;2023-01-10T02:13:56;100642.09;;;6.08;nan
14343;BME280;7255;53.596;9.960;2023-01-10T02:16:22;100638.00;;;6.12;nan
14343;BME280;7255;53.596;9.960;2023-01-10T02:18:49;100640.00;;;6.04;nan
14343;BME280;7255;53.596;9.960;2023-01-10T02:21:41;100662.16;;;6.04;nan
14343;BME280;7255;53.596;9.960;2023-01-10T02:27:44;100658.09;;;6.08;nan
14343;BME280;7255;53.596;9.960;2023-01-10T02:30:35;100677.41;;;6.10;nan
14343;BME280;7255;53.596;9.960;2023-01-10T02:33:09;100687.28;;;6.16;nan
14343;BME280;7255;53.596;9.960;2023-01-10T02:35:54;100685.59;;;6.09;nan
14343;BME280;7255;53.596;9.960;2023-01-10T02:38:31;100681.88;;;6.03;nan
14343;BME280;7255;53.596;9.960;2023-01-10T02:41:05;100684.63;;;5.95;nan
14343;BME280;7255;53.596;9.960;2023-01-10T02:43:37;100691.28;;;5.99;nan
14343;BME280;7255;53.596;9.960;2023-01-10T02:46:07;100689.62;;;5.98;nan
14343;BME280;7255;53.596;9.960;2023-01-10T02:48:36;100691.31;;;6.06;nan
14343;BME280;7255;53.596;9.960;2023-01-10T02:51:03;100704.44;;;6.07;nan
14343;BME280;7255;53.596;9.960;2023-01-10T02:53:37;100702.03;;;6.12;nan
14343;BME280;7255;53.596;9.960;2023-01-10T02:56:23;100716.84;;;6.22;nan
14343;BME280;7255;53.596;9.960;2023-01-10T02:59:03;100713.16;;;6.23;nan
14343;BME280;7255;53.596;9.960;2023-01-10T03:01:41;100716.44;;;6.18;nan
14343;BME280;7255;53.596;9.960;2023-01-10T03:04:16;100714.81;;;6.24;nan
14343;BME280;7255;53.596;9.960;2023-01-10T03:06:51;100716.84;;;6.22;nan
14343;BME280;7255;53.596;9.960;2023-01-10T03:09:24;100716.00;;;6.14;nan
14343;BME280;7255;53.596;9.960;2023-01-10T03:12:00;100719.22;;;6.10;nan
14343;BME280;7255;53.596;9.960;2023-01-10T03:14:29;100720.88;;;6.11;nan
14343;BME280;7255;53.596;9.960;2023-01-10T03:17:00;100725.88;;;6.21;nan
14343;BME280;7255;53.596;9.960;2023-01-10T03:19:31;100733.66;;;6.15;nan
14343;BME280;7255;53.596;9.960;2023-01-10T03:22:01;100741.34;;;6.04;nan
14343;BME280;7255;53.596;9.960;2023-01-10T03:24:32;100728.75;;;6.19;nan
14343;BME280;7255;53.596;9.960;2023-01-10T03:27:02;100742.31;;;6.24;nan
14343;BME280;7255;53.596;9.960;2023-01-10T03:29:36;100729.59;;;6.26;nan
14343;BME280;7255;53.596;9.960;2023-01-10T03:32:08;100738.59;;;6.19;nan
14343;BME280;7255;53.596;9.960;2023-01-10T03:34:39;100736.41;;;6.01;nan
14343;BME280;7255;53.596;9.960;2023-01-10T03:37:09;100732.63;;;5.95;nan
14343;BME280;7255;53.596;9.960;2023-01-10T03:39:43;100736.72;;;5.91;nan
14343;BME280;7255;53.596;9.960;2023-01-10T03:42:20;100734.59;;;5.79;nan
14343;BME280;7255;53.596;9.960;2023-01-10T03:44:54;100734.47;;;5.66;nan
14343;BME280;7255;53.596;9.960;2023-01-10T03:47:24;100745.91;;;5.60;nan
14343;BME280;7255;53.596;9.960;2023-01-10T03:49:59;100757.56;;;5.37;nan
14343;BME280;7255;53.596;9.960;2023-01-10T03:52:28;100762.91;;;5.37;nan
14343;BME280;7255;53.596;9.960;2023-01-10T03:54:55;100767.34;;;5.30;nan
14343;BME280;7255;53.596;9.960;2023-01-10T03:57:23;100773.03;;;5.27;nan
14343;BME280;7255;53.596;9.960;2023-01-10T03:59:51;100791.00;;;5.18;nan
14343;BME280;7255;53.596;9.960;2023-01-10T04:02:18;100794.28;;;5.20;nan
14343;BME280;7255;53.596;9.960;2023-01-10T04:04:45;100793.37;;;5.13;nan
14343;BME280;7255;53.596;9.960;2023-01-10T04:07:13;100806.78;;;5.05;nan
14343;BME280;7255;53.596;9.960;2023-01-10T04:09:39;100804.31;;;5.04;nan
14343;BME280;7255;53.596;9.960;2023-01-10T04:12:05;100794.78;;;4.94;nan
14343;BME280;7255;53.596;9.960;2023-01-10T04:14:32;100803.88;;;5.00;nan
14343;BME280;7255;53.596;9.960;2023-01-10T04:16:58;100809.47;;;4.90;nan
14343;BME280;7255;53.596;9.960;2023-01-10T04:19:24;100808.00;;;5.03;nan
14343;BME280;7255;53.596;9.960;2023-01-10T04:21:51;100823.44;;;4.92;nan
14343;BME280;7255;53.596;9.960;2023-01-10T04:24:19;100834.00;;;4.86;nan
14343;BME280;7255;53.596;9.960;2023-01-10T04:26:45;100824.28;;;4.93;nan
14343;BME280;7255;53.596;9.960;2023-01-10T04:29:11;100829.16;;;4.89;nan
14343;BME280;7255;53.596;9.960;2023-01-10T04:31:38;100843.09;;;4.91;nan
14343;BME280;7255;53.596;9.960;2023-01-10T04:34:05;100838.94;;;4.89;nan
14343;BME280;7255;53.596;9.960;2023-01-10T04:36:31;100848.44;;;4.91;nan
14343;BME280;7255;53.596;9.960;2023-01-10T04:38:58;100855.78;;;4.89;nan
14343;BME280;7255;53.596;9.960;2023-01-10T04:41:25;100859.78;;;4.85;nan
14343;BME280;7255;53.596;9.960;2023-01-10T04:43:52;100855.69;;;4.82;nan
14343;BME280;7255;53.596;9.960;2023-01-10T04:46:18;100871.00;;;4.95;nan
14343;BME280;7255;53.596;9.960;2023-01-10T04:48:44;100874.00;;;5.07;nan
14343;BME280;7255;53.596;9.960;2023-01-10T04:51:11;100876.88;;;5.06;nan
14343;BME280;7255;53.596;9.960;2023-01-10T04:53:37;100886.78;;;5.12;nan
14343;BME280;7255;53.596;9.960;2023-01-10T04:56:05;100882.47;;;5.26;nan
14343;BME280;7255;53.596;9.960;2023-01-10T04:58:34;100884.22;;;5.33;nan
14343;BME280;7255;53.596;9.960;2023-01-10T05:01:07;100895.38;;;5.44;nan
14343;BME280;7255;53.596;9.960;2023-01-10T05:03:33;100886.75;;;5.42;nan
14343;BME280;7255;53.596;9.960;2023-01-10T05:06:00;100902.38;;;5.45;nan
14343;BME280;7255;53.596;9.960;2023-01-10T05:08:27;100898.22;;;5.42;nan
14343;BME280;7255;53.596;9.960;2023-01-10T05:10:53;100902.84;;;5.48;nan
14343;BME280;7255;53.596;9.960;2023-01-10T05:13:20;100916.34;;;5.47;nan
14343;BME280;7255;53.596;9.960;2023-01-10T05:15:47;100926.62;;;5.50;nan
14343;BME280;7255;53.596;9.960;2023-01-10T05:18:14;100923.41;;;5.54;nan
14343;BME280;7255;53.596;9.960;2023-01-10T05:20:40;100918.16;;;5.61;nan
14343;BME280;7255;53.596;9.960;2023-01-10T05:23:06;100926.44;;;5.66;nan
14343;BME280;7255;53.596;9.960;2023-01-10T05:25:33;100929.63;;;5.62;nan
14343;BME280;7255;53.596;9.960;2023-01-10T05:27:59;100936.44;;;5.49;nan
14343;BME280;7255;53.596;9.960;2023-01-10T05:30:26;100935.13;;;5.38;nan
14343;BME280;7255;53.596;9.960;2023-01-10T05:32:53;101015.94;;;5.46;nan
14343;BME280;7255;53.596;9.960;2023-01-10T05:35:19;100961.38;;;5.42;nan
14343;BME280;7255;53.596;9.960;2023-01-10T05:37:46;100960.25;;;5.51;nan
14343;BME280;7255;53.596;9.960;2023-01-10T05:40:12;100971.38;;;5.54;nan
14343;BME280;7255;53.596;9.960;2023-01-10T05:42:38;100972.66;;;5.58;nan
14343;BME280;7255;53.596;9.960;2023-01-10T05:45:05;100986.72;;;5.67;nan
14343;BME280;7255;53.596;9.960;2023-01-10T05:47:32;100978.44;;;5.62;nan
14343;BME280;7255;53.596;9.960;2023-01-10T05:49:59;100975.13;;;5.60;nan
14343;BME280;7255;53.596;9.960;2023-01-10T05:52:26;100986.00;;;5.44;nan
14343;BME280;7255;53.596;9.960;2023-01-10T05:54:52;100990.03;;;5.39;nan
14343;BME280;7255;53.596;9.960;2023-01-10T05:57:18;100995.38;;;5.39;nan
14343;BME280;7255;53.596;9.960;2023-01-10T05:59:46;100996.13;;;5.33;nan
14343;BME280;7255;53.596;9.960;2023-01-10T06:02:12;100999.31;;;5.29;nan
14343;BME280;7255;53.596;9.960;2023-01-10T06:04:39;100995.56;;;5.23;nan
14343;BME280;7255;53.596;9.960;2023-01-10T06:07:06;100989.66;;;5.13;nan
14343;BME280;7255;53.596;9.960;2023-01-10T06:09:34;100999.50;;;5.12;nan
14343;BME280;7255;53.596;9.960;2023-01-10T06:12:00;100996.53;;;5.07;nan
14343;BME280;7255;53.596;9.960;2023-01-10T06:14:26;101009.13;;;4.98;nan
14343;BME280;7255;53.596;9.960;2023-01-10T06:16:52;101012.78;;;4.97;nan
14343;BME280;7255;53.596;9.960;2023-01-10T06:19:19;101013.50;;;4.91;nan
14343;BME280;7255;53.596;9.960;2023-01-10T06:21:45;101016.69;;;4.87;nan
14343;BME280;7255;53.596;9.960;2023-01-10T06:24:14;101018.84;;;4.91;nan
14343;BME280;7255;53.596;9.960;2023-01-10T06:26:40;101026.87;;;4.83;nan
14343;BME280;7255;53.596;9.960;2023-01-10T06:29:06;101033.28;;;4.74;nan
14343;BME280;7255;53.596;9.960;2023-01-10T06:31:33;101036.25;;;4.79;nan
14343;BME280;7255;53.596;9.960;2023-01-10T06:33:59;101037.91;;;4.80;nan
14343;BME280;7255;53.596;9.960;2023-01-10T06:36:26;101042.38;;;4.79;nan
14343;BME280;7255;53.596;9.960;2023-01-10T06:38:52;101051.28;;;4.72;nan
14343;BME280;7255;53.596;9.960;2023-01-10T06:41:20;101057.19;;;4.82;nan
14343;BME280;7255;53.596;9.960;2023-01-10T06:43:48;101051.16;;;4.88;nan
14343;BME280;7255;53.596;9.960;2023-01-10T06:46:16;101065.44;;;4.87;nan
14343;BME280;7255;53.596;9.960;2023-01-10T06:48:44;101062.75;;;4.95;nan
14343;BME280;7255;53.596;9.960;2023-01-10T06:51:11;101068.06;;;4.95;nan
14343;BME280;7255;53.596;9.960;2023-01-10T06:53:37;101066.03;;;4.97;nan
14343;BME280;7255;53.596;9.960;2023-01-10T06:56:05;101075.88;;;4.97;nan
14343;BME280;7255;53.596;9.960;2023-01-10T06:58:34;101073.25;;;4.89;nan
14343;BME280;7255;53.596;9.960;2023-01-10T07:01:03;101054.44;;;4.90;nan
14343;BME280;7255;53.596;9.960;2023-01-10T07:03:29;101063.56;;;4.96;nan
14343;BME280;7255;53.596;9.960;2023-01-10T07:05:59;101082.38;;;4.94;nan
14343;BME280;7255;53.596;9.960;2023-01-10T07:08:25;101066.78;;;4.91;nan
14343;BME280;7255;53.596;9.960;2023-01-10T07:10:52;101082.28;;;4.88;nan
14343;BME280;7255;53.596;9.960;2023-01-10T07:13:19;101097.41;;;4.87;nan
14343;BME280;7255;53.596;9.960;2023-01-10T07:15:46;101108.66;;;4.97;nan
14343;BME280;7255;53.596;9.960;2023-01-10T07:18:12;101099.28;;;5.01;nan
14343;BME280;7255;53.596;9.960;2023-01-10T07:20:39;101111.37;;;5.12;nan
14343;BME280;7255;53.596;9.960;2023-01-10T07:23:05;101106.84;;;5.13;nan
14343;BME280;7255;53.596;9.960;2023-01-10T07:25:32;101112.19;;;5.13;nan
14343;BME280;7255;53.596;9.960;2023-01-10T07:27:58;101114.31;;;5.17;nan
14343;BME280;7255;53.596;9.960;2023-01-10T07:30:24;101128.28;;;5.19;nan
14343;BME280;7255;53.596;9.960;2023-01-10T07:32:56;101120.47;;;5.18;nan
14343;BME280;7255;53.596;9.960;2023-01-10T07:35:23;101115.06;;;5.11;nan
14343;BME280;7255;53.596;9.960;2023-01-10T07:37:50;101118.22;;;5.07;nan
14343;BME280;7255;53.596;9.960;2023-01-10T07:40:17;101117.75;;;5.03;nan
14343;BME280;7255;53.596;9.960;2023-01-10T07:42:43;101125.22;;;4.85;nan
14343;BME280;7255;53.596;9.960;2023-01-10T07:45:10;101123.69;;;4.90;nan
14343;BME280;7255;53.596;9.960;2023-01-10T07:47:36;101116.34;;;4.92;nan
14343;BME280;7255;53.596;9.960;2023-01-10T07:50:05;101121.81;;;4.99;nan
14343;BME280;7255;53.596;9.960;2023-01-10T07:52:32;101130.09;;;5.04;nan
14343;BME280;7255;53.596;9.960;2023-01-10T07:54:58;101124.50;;;5.14;nan
14343;BME280;7255;53.596;9.960;2023-01-10T07:57:24;101130.31;;;5.17;nan
14343;BME280;7255;53.596;9.960;2023-01-10T07:59:51;101139.88;;;5.27;nan
14343;BME280;7255;53.596;9.960;2023-01-10T08:02:17;101138.00;;;5.35;nan
14343;BME280;7255;53.596;9.960;2023-01-10T08:04:43;101141.50;;;5.51;nan
14343;BME280;7255;53.596;9.960;2023-01-10T08:07:11;101143.53;;;5.49;nan
14343;BME280;7255;53.596;9.960;2023-01-10T08:09:37;101143.62;;;5.55;nan
14343;BME280;7255;53.596;9.960;2023-01-10T08:12:04;101143.38;;;5.65;nan
14343;BME280;7255;53.596;9.960;2023-01-10T08:14:30;101145.37;;;5.63;nan
14343;BME280;7255;53.596;9.960;2023-01-10T08:16:56;101156.97;;;5.70;nan
14343;BME280;7255;53.596;9.960;2023-01-10T08:19:23;101163.59;;;5.74;nan
14343;BME280;7255;53.596;9.960;2023-01-10T08:21:49;101166.91;;;5.76;nan
14343;BME280;7255;53.596;9.960;2023-01-10T08:24:16;101178.50;;;5.84;nan
14343;BME280;7255;53.596;9.960;2023-01-10T08:26:43;101171.75;;;5.96;nan
14343;BME280;7255;53.596;9.960;2023-01-10T08:29:09;101184.41;;;5.94;nan
14343;BME280;7255;53.596;9.960;2023-01-10T08:31:35;101195.59;;;5.97;nan
14343;BME280;7255;53.596;9.960;2023-01-10T08:34:02;101194.03;;;6.03;nan
14343;BME280;7255;53.596;9.960;2023-01-10T08:36:28;101189.97;;;6.07;nan
14343;BME280;7255;53.596;9.960;2023-01-10T08:38:54;101194.47;;;6.07;nan
14343;BME280;7255;53.596;9.960;2023-01-10T08:41:22;101183.00;;;6.06;nan
14343;BME280;7255;53.596;9.960;2023-01-10T08:43:48;101195.31;;;6.07;nan
14343;BME280;7255;53.596;9.960;2023-01-10T08:46:15;101191.53;;;6.02;nan
14343;BME280;7255;53.596;9.960;2023-01-10T08:48:41;101200.53;;;6.01;nan
14343;BME280;7255;53.596;9.960;2023-01-10T08:51:08;101207.66;;;6.08;nan
14343;BME280;7255;53.596;9.960;2023-01-10T08:53:35;101221.25;;;6.13;nan
14343;BME280;7255;53.596;9.960;2023-01-10T08:56:02;101227.03;;;6.17;nan
14343;BME280;7255;53.596;9.960;2023-01-10T08:58:29;101228.06;;;6.31;nan
14343;BME280;7255;53.596;9.960;2023-01-10T09:00:56;101222.63;;;6.24;nan
14343;BME280;7255;53.596;9.960;2023-01-10T09:03:22;101223.09;;;6.28;nan
14343;BME280;7255;53.596;9.960;2023-01-10T09:05:48;101223.09;;;6.28;nan
14343;BME280;7255;53.596;9.960;2023-01-10T09:08:15;101206.81;;;6.38;nan
14343;BME280;7255;53.596;9.960;2023-01-10T09:10:41;101192.91;;;6.42;nan
14343;BME280;7255;53.596;9.960;2023-01-10T09:13:07;101172.66;;;6.33;nan
14343;BME280;7255;53.596;9.960;2023-01-10T09:15:36;101183.25;;;6.26;nan
14343;BME280;7255;53.596;9.960;2023-01-10T09:18:05;101191.44;;;6.25;nan
14343;BME280;7255;53.596;9.960;2023-01-10T09:20:33;101199.00;;;6.36;nan
14343;BME280;7255;53.596;9.960;2023-01-10T09:23:04;101189.50;;;6.33;nan
14343;BME280;7255;53.596;9.960;2023-01-10T09:25:30;101179.81;;;6.47;nan
14343;BME280;7255;53.596;9.960;2023-01-10T09:27:57;101206.16;;;6.50;nan
14343;BME280;7255;53.596;9.960;2023-01-10T09:30:24;101207.91;;;6.58;nan
14343;BME280;7255;53.596;9.960;2023-01-10T09:32:52;101201.44;;;6.67;nan
14343;BME280;7255;53.596;9.960;2023-01-10T09:35:19;101206.84;;;6.74;nan
14343;BME280;7255;53.596;9.960;2023-01-10T09:37:45;101224.16;;;6.78;nan
14343;BME280;7255;53.596;9.960;2023-01-10T09:40:15;101240.91;;;6.72;nan
14343;BME280;7255;53.596;9.960;2023-01-10T09:42:52;101243.25;;;6.60;nan
14343;BME280;7255;53.596;9.960;2023-01-10T09:45:31;101257.13;;;6.55;nan
14343;BME280;7255;53.596;9.960;2023-01-10T09:48:04;101254.22;;;6.50;nan
14343;BME280;7255;53.596;9.960;2023-01-10T09:50:38;101266.53;;;6.51;nan
14343;BME280;7255;53.596;9.960;2023-01-10T09:53:12;101271.81;;;6.45;nan
14343;BME280;7255;53.596;9.960;2023-01-10T09:55:40;101270.59;;;6.47;nan
14343;BME280;7255;53.596;9.960;2023-01-10T09:58:11;101281.37;;;6.54;nan
14343;BME280;7255;53.596;9.960;2023-01-10T10:00:42;101274.53;;;6.66;nan
14343;BME280;7255;53.596;9.960;2023-01-10T10:03:19;101270.75;;;6.61;nan
14343;BME280;7255;53.596;9.960;2023-01-10T10:05:47;101281.09;;;6.64;nan
14343;BME280;7255;53.596;9.960;2023-01-10T10:08:16;101283.28;;;6.75;nan
14343;BME280;7255;53.596;9.960;2023-01-10T10:10:51;101286.59;;;6.77;nan
14343;BME280;7255;53.596;9.960;2023-01-10T10:13:25;101288.53;;;6.68;nan
14343;BME280;7255;53.596;9.960;2023-01-10T10:16:03;101285.88;;;6.83;nan
14343;BME280;7255;53.596;9.960;2023-01-10T10:18:43;101291.37;;;6.97;nan
14343;BME280;7255;53.596;9.960;2023-01-10T10:21:19;101308.66;;;7.01;nan
14343;BME280;7255;53.596;9.960;2023-01-10T10:24:18;101308.13;;;6.90;nan
14343;BME280;7255;53.596;9.960;2023-01-10T10:26:52;101297.16;;;7.00;nan
14343;BME280;7255;53.596;9.960;2023-01-10T10:29:34;101294.69;;;6.99;nan
14343;BME280;7255;53.596;9.960;2023-01-10T10:32:22;101290.09;;;6.92;nan
14343;BME280;7255;53.596;9.960;2023-01-10T10:34:55;101282.16;;;6.84;nan
14343;BME280;7255;53.596;9.960;2023-01-10T10:37:26;101279.22;;;6.79;nan
14343;BME280;7255;53.596;9.960;2023-01-10T10:39:59;101277.28;;;6.88;nan
14343;BME280;7255;53.596;9.960;2023-01-10T10:42:28;101286.03;;;6.97;nan
14343;BME280;7255;53.596;9.960;2023-01-10T10:44:59;101296.25;;;6.93;nan
14343;BME280;7255;53.596;9.960;2023-01-10T10:47:31;101298.75;;;6.94;nan
14343;BME280;7255;53.596;9.960;2023-01-10T10:50:06;101305.38;;;6.99;nan
14343;BME280;7255;53.596;9.960;2023-01-10T10:52:37;101301.50;;;6.86;nan
14343;BME280;7255;53.596;9.960;2023-01-10T10:55:05;101307.69;;;6.87;nan
14343;BME280;7255;53.596;9.960;2023-01-10T10:57:36;101306.12;;;6.92;nan
14343;BME280;7255;53.596;9.960;2023-01-10T11:00:04;101296.78;;;7.03;nan
14343;BME280;7255;53.596;9.960;2023-01-10T11:02:38;101306.19;;;6.99;nan
14343;BME280;7255;53.596;9.960;2023-01-10T11:05:14;101316.50;;;7.02;nan
14343;BME280;7255;53.596;9.960;2023-01-10T11:07:42;101311.78;;;7.19;nan
14343;BME280;7255;53.596;9.960;2023-01-10T11:10:13;101306.41;;;7.19;nan
14343;BME280;7255;53.596;9.960;2023-01-10T11:12:59;101313.88;;;7.24;nan
14343;BME280;7255;53.596;9.960;2023-01-10T11:15:38;101311.31;;;7.16;nan
14343;BME280;7255;53.596;9.960;2023-01-10T11:18:08;101320.50;;;7.28;nan
14343;BME280;7255;53.596;9.960;2023-01-10T11:20:45;101321.78;;;7.32;nan
14343;BME280;7255;53.596;9.960;2023-01-10T11:23:21;101327.44;;;7.22;nan
14343;BME280;7255;53.596;9.960;2023-01-10T11:25:47;101326.75;;;7.35;nan
14343;BME280;7255;53.596;9.960;2023-01-10T11:28:14;101331.13;;;7.21;nan
14343;BME280;7255;53.596;9.960;2023-01-10T11:30:46;101319.25;;;7.24;nan
14343;BME280;7255;53.596;9.960;2023-01-10T11:33:18;101313.94;;;7.30;nan
14343;BME280;7255;53.596;9.960;2023-01-10T11:35:58;101331.56;;;7.25;nan
14343;BME280;7255;53.596;9.960;2023-01-10T11:38:24;101325.41;;;7.24;nan
14343;BME280;7255;53.596;9.960;2023-01-10T11:40:56;101322.16;;;7.29;nan
14343;BME280;7255;53.596;9.960;2023-01-10T11:43:26;101325.09;;;7.34;nan
14343;BME280;7255;53.596;9.960;2023-01-10T11:45:54;101331.34;;;7.41;nan
14343;BME280;7255;53.596;9.960;2023-01-10T11:48:22;101322.22;;;7.36;nan
14343;BME280;7255;53.596;9.960;2023-01-10T11:50:53;101325.63;;;7.44;nan
14343;BME280;7255;53.596;9.960;2023-01-10T11:53:33;101328.47;;;7.43;nan
14343;BME280;7255;53.596;9.960;2023-01-10T11:56:02;101316.56;;;7.45;nan
14343;BME280;7255;53.596;9.960;2023-01-10T11:58:30;101319.84;;;7.41;nan
14343;BME280;7255;53.596;9.960;2023-01-10T12:00:58;101325.50;;;7.31;nan
14343;BME280;7255;53.596;9.960;2023-01-10T12:03:26;101323.06;;;7.36;nan
14343;BME280;7255;53.596;9.960;2023-01-10T12:05:56;101313.72;;;7.47;nan
14343;BME280;7255;53.596;9.960;2023-01-10T12:08:30;101323.44;;;7.33;nan
14343;BME280;7255;53.596;9.960;2023-01-10T12:11:03;101316.13;;;7.42;nan
14343;BME280;7255;53.596;9.960;2023-01-10T12:13:44;101320.38;;;7.51;nan
14343;BME280;7255;53.596;9.960;2023-01-10T12:16:19;101320.38;;;7.51;nan
14343;BME280;7255;53.596;9.960;2023-01-10T12:18:47;101312.13;;;7.52;nan
14343;BME280;7255;53.596;9.960;2023-01-10T12:21:15;101311.50;;;7.72;nan
14343;BME280;7255;53.596;9.960;2023-01-10T12:23:47;101322.53;;;7.62;nan
14343;BME280;7255;53.596;9.960;2023-01-10T12:26:15;101320.97;;;7.75;nan
14343;BME280;7255;53.596;9.960;2023-01-10T12:28:47;101315.69;;;7.81;nan
14343;BME280;7255;53.596;9.960;2023-01-10T12:31:15;101318.56;;;7.80;nan
14343;BME280;7255;53.596;9.960;2023-01-10T12:33:45;101320.12;;;7.67;nan
14343;BME280;7255;53.596;9.960;2023-01-10T12:36:17;101324.69;;;7.74;nan
14343;BME280;7255;53.596;9.960;2023-01-10T12:38:54;101318.91;;;7.70;nan
14343;BME280;7255;53.596;9.960;2023-01-10T12:41:37;101318.25;;;7.89;nan
14343;BME280;7255;53.596;9.960;2023-01-10T12:44:30;101314.22;;;8.00;nan
14343;BME280;7255;53.596;9.960;2023-01-10T12:47:01;101312.56;;;7.99;nan
14343;BME280;7255;53.596;9.960;2023-01-10T12:49:32;101319.56;;;8.00;nan
14343;BME280;7255;53.596;9.960;2023-01-10T12:52:04;101318.03;;;8.13;nan
14343;BME280;7255;53.596;9.960;2023-01-10T12:54:33;101320.16;;;8.24;nan
14343;BME280;7255;53.596;9.960;2023-01-10T12:57:03;101309.34;;;8.10;nan
14343;BME280;7255;53.596;9.960;2023-01-10T12:59:33;101320.84;;;8.04;nan
14343;BME280;7255;53.596;9.960;2023-01-10T13:02:04;101322.94;;;8.09;nan
14343;BME280;7255;53.596;9.960;2023-01-10T13:04:33;101312.66;;;8.13;nan
14343;BME280;7255;53.596;9.960;2023-01-10T13:07:02;101320.88;;;8.11;nan
14343;BME280;7255;53.596;9.960;2023-01-10T13:09:29;101318.47;;;8.16;nan
14343;BME280;7255;53.596;9.960;2023-01-10T13:12:01;101318.81;;;8.06;nan
14343;BME280;7255;53.596;9.960;2023-01-10T13:14:33;101326.59;;;8.01;nan
14343;BME280;7255;53.596;9.960;2023-01-10T13:17:08;101320.41;;;8.01;nan
14343;BME280;7255;53.596;9.960;2023-01-10T13:19:35;101318.81;;;8.06;nan
14343;BME280;7255;53.596;9.960;2023-01-10T13:22:17;101332.88;;;8.15;nan
14343;BME280;7255;53.596;9.960;2023-01-10T13:24:54;101319.78;;;8.27;nan
14343;BME280;7255;53.596;9.960;2023-01-10T13:27:22;101312.03;;;8.39;nan
14343;BME280;7255;53.596;9.960;2023-01-10T13:29:51;101319.41;;;8.30;nan
14343;BME280;7255;53.596;9.960;2023-01-10T13:32:20;101311.69;;;8.42;nan
14343;BME280;7255;53.596;9.960;2023-01-10T13:34:47;101310.31;;;8.31;nan
14343;BME280;7255;53.596;9.960;2023-01-10T13:37:21;101315.69;;;8.31;nan
14343;BME280;7255;53.596;9.960;2023-01-10T13:39:51;101307.84;;;8.29;nan
14343;BME280;7255;53.596;9.960;2023-01-10T13:42:26;101313.16;;;8.23;nan
14343;BME280;7255;53.596;9.960;2023-01-10T13:45:16;101313.09;;;8.16;nan
14343;BME280;7255;53.596;9.960;2023-01-10T13:47:57;101314.34;;;8.14;nan